Time;durP1;ratioP1;P1;durP2;ratioP2;P2;SDS_P1;SDS_P2;PMS_P1;PMS_P2;Temp;Humidity;BMP_temperature;BMP_pressure;BME280_temperature;BME280_humidity;BME280_pressure;Samples;Min_cycle;Max_cycle;Signal;HPM_P1;HPM_P2
2023/03/29 00:00:45;;;;;;;14.70;3.95;;;;;;;-144.73;82.06;54498.00;5006929;28;20038;-71
2023/03/29 00:03:12;;;;;;;14.13;4.00;;;;;;;-144.73;81.99;54459.00;4981419;28;20022;-71
2023/03/29 00:05:39;;;;;;;15.93;4.15;;;;;;;-144.73;80.94;54463.13;4976264;28;20039;-70
2023/03/29 00:08:06;;;;;;;9.63;4.00;;;;;;;-144.73;82.31;54461.06;4992508;28;20022;-70
2023/03/29 00:10:33;;;;;;;12.57;4.65;;;;;;;-144.73;82.35;54469.28;4992517;28;20062;-70
2023/03/29 00:12:59;;;;;;;15.40;4.47;;;;;;;-144.73;82.12;54461.06;4981281;28;20029;-70
2023/03/29 00:15:25;;;;;;;20.98;4.05;;;;;;;-144.73;82.45;54452.84;4991909;28;20118;-70
2023/03/29 00:17:50;;;;;;;25.45;4.88;;;;;;;-144.73;83.30;54448.75;4976710;28;20061;-71
2023/03/29 00:20:16;;;;;;;18.63;5.00;;;;;;;-144.73;83.51;54454.91;4984605;28;20030;-71
2023/03/29 00:22:42;;;;;;;21.80;4.50;;;;;;;-144.73;83.57;54452.84;4985365;28;20576;-71
2023/03/29 00:25:09;;;;;;;17.13;4.32;;;;;;;-144.73;84.51;54436.44;4974989;28;20030;-71
2023/03/29 00:27:35;;;;;;;16.25;5.10;;;;;;;-144.73;85.51;54430.28;4991316;28;20033;-71
2023/03/29 00:30:02;;;;;;;17.73;4.85;;;;;;;-144.73;86.39;54448.75;4991742;28;20022;-70
2023/03/29 00:32:29;;;;;;;22.40;4.65;;;;;;;-144.73;86.65;54485.69;4991500;28;20397;-71
2023/03/29 00:34:55;;;;;;;15.50;3.67;;;;;;;-144.73;87.35;54452.84;4974825;28;20029;-71
2023/03/29 00:37:25;;;;;;;21.48;4.55;;;;;;;-144.73;87.63;54473.38;4990755;28;20026;-70
2023/03/29 00:39:51;;;;;;;15.63;4.45;;;;;;;-144.73;87.21;54448.75;4991406;28;20030;-70
2023/03/29 00:42:17;;;;;;;17.45;4.05;;;;;;;-144.73;88.13;54440.53;4990975;28;20027;-70
2023/03/29 00:45:03;;;;;;;13.95;4.47;;;;;;;-144.73;86.63;54473.38;4981571;28;20014;-70
2023/03/29 00:47:57;;;;;;;24.40;4.88;;;;;;;-144.73;86.86;54473.38;4990542;28;20057;-70
2023/03/29 00:50:35;;;;;;;17.50;4.88;;;;;;;-144.73;87.40;54424.13;4991717;28;20030;-70
2023/03/29 00:53:11;;;;;;;15.77;4.75;;;;;;;-144.73;86.87;54444.66;4991542;28;20018;-71
2023/03/29 00:55:42;;;;;;;21.25;4.35;;;;;;;-144.73;87.19;54444.66;4986940;28;20030;-70
2023/03/29 00:58:13;;;;;;;13.25;4.88;;;;;;;-144.73;86.83;54420.00;4981284;28;20018;-70
2023/03/29 01:00:46;;;;;;;22.55;4.68;;;;;;;-144.73;86.06;54440.53;4986517;28;20043;-70
2023/03/29 01:03:13;;;;;;;15.48;4.72;;;;;;;-144.73;86.30;54473.38;4973654;28;20048;-71
2023/03/29 01:05:43;;;;;;;20.98;5.35;;;;;;;-144.73;86.00;54436.44;4997705;28;20050;-71
2023/03/29 01:08:16;;;;;;;20.60;5.65;;;;;;;-144.73;85.75;54448.75;4979284;28;20082;-71
2023/03/29 01:10:47;;;;;;;18.77;5.38;;;;;;;-144.73;86.46;54452.84;4990952;28;20057;-71
2023/03/29 01:13:19;;;;;;;20.63;4.72;;;;;;;-144.73;87.18;54420.00;4978362;28;20365;-71
2023/03/29 01:15:45;;;;;;;26.10;4.97;;;;;;;-144.73;87.40;54446.69;4991268;28;20030;-71
2023/03/29 01:18:11;;;;;;;14.40;4.70;;;;;;;-144.73;87.92;54454.91;4976804;28;20026;-71
2023/03/29 01:21:01;;;;;;;12.23;4.30;;;;;;;-144.73;87.95;54452.84;4976657;28;20423;-71
2023/03/29 01:23:57;;;;;;;17.55;4.35;;;;;;;-144.73;87.56;54440.53;4996782;28;20069;-71
2023/03/29 01:26:38;;;;;;;19.70;4.55;;;;;;;-144.73;87.49;54428.22;4987975;28;20042;-71
2023/03/29 01:29:19;;;;;;;16.58;4.82;;;;;;;-144.73;87.41;54465.16;4989639;28;20110;-71
2023/03/29 01:31:51;;;;;;;18.38;4.82;;;;;;;-144.73;87.35;54469.28;4989296;28;20066;-72
2023/03/29 01:34:24;;;;;;;20.23;5.10;;;;;;;-144.73;87.55;54456.97;4973251;28;20057;-72
2023/03/29 01:36:49;;;;;;;16.65;5.30;;;;;;;-144.73;87.71;54461.06;4972725;28;20058;-71
2023/03/29 01:39:17;;;;;;;19.73;5.13;;;;;;;-144.73;87.80;54432.31;4973517;28;20061;-71
2023/03/29 01:41:56;;;;;;;16.73;5.28;;;;;;;-144.73;87.96;54465.16;4994281;28;20046;-71
2023/03/29 01:44:51;;;;;;;14.10;4.00;;;;;;;-144.73;87.43;54461.06;4993778;28;20050;-71
2023/03/29 01:47:27;;;;;;;17.10;4.30;;;;;;;-144.73;86.71;54473.38;4993146;28;20041;-71
2023/03/29 01:50:37;;;;;;;22.42;5.50;;;;;;;-144.73;86.29;54469.28;4977693;28;20014;-72
2023/03/29 01:53:09;;;;;;;18.02;4.95;;;;;;;-144.73;86.45;54461.06;4975680;28;20042;-71
2023/03/29 01:55:37;;;;;;;;;;;;;;;-144.73;86.48;54479.53;4994600;28;20042;-70
2023/03/29 01:58:06;;;;;;;19.65;4.68;;;;;;;-144.73;87.08;54465.16;4977694;28;19910;-70
2023/03/29 02:00:33;;;;;;;19.98;4.95;;;;;;;-144.73;87.91;54477.47;4976903;28;20063;-70
2023/03/29 02:03:06;;;;;;;22.77;4.43;;;;;;;-144.73;87.34;54461.06;4986496;28;20035;-72
2023/03/29 02:05:33;;;;;;;17.42;5.03;;;;;;;-144.73;87.66;54477.47;4993996;28;20116;-71
2023/03/29 02:08:01;;;;;;;19.00;4.70;;;;;;;-144.73;87.91;54489.81;4993967;28;20026;-71
2023/03/29 02:10:27;;;;;;;17.10;4.38;;;;;;;-144.73;88.01;54440.53;4993915;28;20073;-71
2023/03/29 02:12:56;;;;;;;20.45;4.95;;;;;;;-144.73;87.49;54454.91;4977490;28;20037;-71
2023/03/29 02:15:27;;;;;;;11.90;4.13;;;;;;;-144.73;86.61;54498.00;4983230;28;20041;-71
2023/03/29 02:17:53;;;;;;;23.60;4.93;;;;;;;-144.73;86.45;54440.53;4994995;28;20022;-70
2023/03/29 02:20:23;;;;;;;15.90;4.60;;;;;;;-144.73;85.95;54456.97;4997867;28;20048;-70
2023/03/29 02:23:07;;;;;;;24.98;4.28;;;;;;;-144.73;85.49;54424.13;4993444;28;20015;-71
2023/03/29 02:25:36;;;;;;;31.52;5.60;;;;;;;-144.73;85.73;54473.38;4993816;28;20073;-71
2023/03/29 02:28:02;;;;;;;19.05;5.05;;;;;;;-144.73;86.13;54436.44;4976516;28;20022;-71
2023/03/29 02:30:36;;;;;;;16.10;4.32;;;;;;;-144.73;86.81;54485.69;5003090;28;20126;-70
2023/03/29 02:33:20;;;;;;;21.85;4.25;;;;;;;-144.73;87.06;54465.16;4987509;28;20045;-70
2023/03/29 02:36:01;;;;;;;22.60;3.90;;;;;;;-144.73;86.19;54452.84;4993706;28;20043;-70
2023/03/29 02:38:30;;;;;;;11.63;4.00;;;;;;;-144.73;85.96;54481.59;4977070;28;20033;-70
2023/03/29 02:40:57;;;;;;;17.65;3.75;;;;;;;-144.73;85.63;54440.53;4976114;28;20093;-71
2023/03/29 02:43:24;;;;;;;15.27;3.80;;;;;;;-144.73;85.38;54463.13;4976765;28;20026;-70
2023/03/29 02:45:51;;;;;;;19.70;4.93;;;;;;;-144.73;85.74;54465.16;4993292;28;20061;-70
2023/03/29 02:48:20;;;;;;;15.80;4.00;;;;;;;-144.73;85.40;54440.53;4994041;28;20022;-70
2023/03/29 02:50:49;;;;;;;17.75;4.70;;;;;;;-144.73;84.50;54473.38;4993126;28;20033;-70
2023/03/29 02:53:18;;;;;;;15.02;3.55;;;;;;;-144.73;84.49;54465.16;4993910;28;20034;-70
2023/03/29 02:55:44;;;;;;;12.63;3.90;;;;;;;-144.73;84.38;54475.44;4981037;28;20529;-70
2023/03/29 02:58:12;;;;;;;26.00;4.07;;;;;;;-144.73;84.12;54485.69;4972655;28;20085;-71
2023/03/29 03:00:41;;;;;;;11.98;3.47;;;;;;;-144.73;85.02;54420.00;4975999;28;20043;-70
2023/03/29 03:03:08;;;;;;;14.30;3.85;;;;;;;-144.73;84.58;54456.97;4993750;28;20065;-70
2023/03/29 03:05:34;;;;;;;12.60;4.05;;;;;;;-144.73;84.62;54424.13;4975646;28;20035;-70
2023/03/29 03:07:59;;;;;;;22.67;4.72;;;;;;;-144.73;84.71;54452.84;4976173;28;20038;-70
2023/03/29 03:10:24;;;;;;;17.58;4.13;;;;;;;-144.73;84.86;54444.66;4992928;28;20067;-70
2023/03/29 03:12:50;;;;;;;22.52;4.07;;;;;;;-144.73;83.80;54399.50;4976723;28;20069;-70
2023/03/29 03:15:16;;;;;;;15.85;3.35;;;;;;;-144.73;82.80;54452.84;4975709;28;20182;-70
2023/03/29 03:17:41;;;;;;;6.93;3.03;;;;;;;-144.73;82.71;54452.84;4976101;28;20512;-70
2023/03/29 03:20:12;;;;;;;18.63;3.95;;;;;;;-144.73;81.99;54461.06;5002730;28;20033;-71
2023/03/29 03:22:44;;;;;;;14.45;3.58;;;;;;;-144.73;82.36;54440.53;4999050;28;20026;-70
2023/03/29 03:25:10;;;;;;;12.82;3.75;;;;;;;-144.73;82.97;54469.28;4992473;28;20022;-70
2023/03/29 03:27:36;;;;;;;21.83;3.63;;;;;;;-144.73;82.39;54461.06;4993381;28;20026;-70
2023/03/29 03:30:05;;;;;;;14.13;4.28;;;;;;;-144.73;82.46;54436.44;4975447;28;20057;-70
2023/03/29 03:32:33;;;;;;;16.90;3.67;;;;;;;-144.73;82.70;54461.06;4992759;28;20038;-70
2023/03/29 03:34:59;;;;;;;13.63;3.15;;;;;;;-144.73;83.17;54473.38;4976020;28;20113;-70
2023/03/29 03:37:26;;;;;;;19.98;4.15;;;;;;;-144.73;82.37;54461.06;4991271;28;20113;-70
2023/03/29 03:39:52;;;;;;;23.05;4.32;;;;;;;-144.73;82.77;54461.06;4975716;28;20065;-70
2023/03/29 03:42:17;;;;;;;14.65;3.45;;;;;;;-144.73;82.11;54432.31;4992519;28;20054;-71
2023/03/29 03:44:43;;;;;;;32.58;4.25;;;;;;;-144.73;83.25;54463.13;4975370;28;20030;-69
2023/03/29 03:47:09;;;;;;;10.43;3.22;;;;;;;-144.73;83.19;54444.66;4992007;28;20084;-71
2023/03/29 03:49:34;;;;;;;25.95;4.15;;;;;;;-144.73;83.55;54436.44;4992869;28;20045;-71
2023/03/29 03:52:00;;;;;;;16.48;3.63;;;;;;;-144.73;82.66;54465.16;4992524;28;20046;-70
2023/03/29 03:54:26;;;;;;;22.92;4.32;;;;;;;-144.73;82.95;54440.53;4992835;28;20100;-70
2023/03/29 03:56:51;;;;;;;13.43;3.30;;;;;;;-144.73;83.10;54442.59;4990258;28;20038;-70
2023/03/29 03:59:17;;;;;;;18.13;4.55;;;;;;;-144.73;83.17;54483.66;4992365;28;20505;-70
2023/03/29 04:01:45;;;;;;;18.15;3.60;;;;;;;-144.73;83.11;54485.69;4991079;28;20485;-69
2023/03/29 04:04:11;;;;;;;25.02;3.47;;;;;;;-144.73;83.04;54440.53;4992013;28;20434;-70
2023/03/29 04:06:37;;;;;;;20.80;3.92;;;;;;;-144.73;83.55;54465.16;4992409;28;20069;-70
2023/03/29 04:09:04;;;;;;;22.83;3.70;;;;;;;-144.73;82.98;54452.84;4981041;28;20049;-70
2023/03/29 04:11:29;;;;;;;15.32;4.22;;;;;;;-144.73;83.42;54481.59;4975077;28;20037;-70
2023/03/29 04:13:56;;;;;;;11.35;3.97;;;;;;;-144.73;82.48;54477.47;4975267;28;20056;-70
2023/03/29 04:16:22;;;;;;;13.25;4.07;;;;;;;-144.73;81.88;54473.38;4976294;28;20049;-71
2023/03/29 04:18:47;;;;;;;14.43;3.97;;;;;;;-144.73;82.33;54420.00;4976345;28;20038;-70
2023/03/29 04:21:13;;;;;;;15.52;4.75;;;;;;;-144.73;83.39;54461.06;4975242;28;20042;-70
2023/03/29 04:23:38;;;;;;;14.38;4.30;;;;;;;-144.73;83.00;54461.06;4992587;28;20022;-70
2023/03/29 04:26:04;;;;;;;15.45;4.20;;;;;;;-144.73;83.04;54444.66;4975881;28;20046;-71
2023/03/29 04:28:29;;;;;;;16.77;5.32;;;;;;;-144.73;82.66;54461.06;4975627;28;20026;-70
2023/03/29 04:30:55;;;;;;;16.95;4.03;;;;;;;-144.73;83.03;54465.16;4975134;28;20065;-70
2023/03/29 04:33:20;;;;;;;16.88;4.05;;;;;;;-144.73;83.63;54448.75;4991789;28;20023;-71
2023/03/29 04:35:46;;;;;;;20.58;4.90;;;;;;;-144.73;83.79;54473.38;4974729;28;20046;-70
2023/03/29 04:38:12;;;;;;;16.35;4.25;;;;;;;-144.73;83.36;54432.31;4975361;28;20025;-70
2023/03/29 04:40:37;;;;;;;15.23;5.18;;;;;;;-144.73;83.99;54477.47;4974119;28;20037;-70
2023/03/29 04:43:03;;;;;;;16.35;4.00;;;;;;;-144.73;83.55;54407.69;4974672;28;20026;-69
2023/03/29 04:45:28;;;;;;;18.02;4.72;;;;;;;-144.73;83.92;54440.53;4990145;28;20035;-69
2023/03/29 04:48:00;;;;;;;16.65;4.32;;;;;;;-144.73;84.07;54436.44;4974699;28;20022;-70
2023/03/29 04:50:26;;;;;;;13.57;4.90;;;;;;;-144.73;84.48;54465.16;4973923;28;20462;-70
2023/03/29 04:52:51;;;;;;;16.40;4.53;;;;;;;-144.73;84.38;54461.06;4990858;28;20061;-71
2023/03/29 04:55:17;;;;;;;30.88;5.00;;;;;;;-144.73;84.16;54432.31;4989950;28;20026;-70
2023/03/29 04:57:43;;;;;;;16.80;4.20;;;;;;;-144.73;84.01;54489.81;4974480;28;20024;-71
2023/03/29 05:00:16;;;;;;;15.40;4.22;;;;;;;-144.73;83.46;54444.66;4991406;28;20026;-71
2023/03/29 05:02:42;;;;;;;16.88;4.60;;;;;;;-144.73;83.93;54465.16;4991289;28;20026;-71
2023/03/29 05:05:08;;;;;;;15.40;5.15;;;;;;;-144.73;83.80;54456.97;4973840;28;20030;-71
2023/03/29 05:07:34;;;;;;;14.95;4.80;;;;;;;-144.73;83.76;54448.75;4974080;28;20029;-71
2023/03/29 05:10:00;;;;;;;20.52;5.50;;;;;;;-144.73;83.63;54489.81;4992272;28;20031;-71
2023/03/29 05:12:25;;;;;;;25.35;5.15;;;;;;;-144.73;84.44;54452.84;4989379;28;20042;-70
2023/03/29 05:14:51;;;;;;;21.10;4.57;;;;;;;-144.73;84.71;54448.75;4973587;28;20030;-69
2023/03/29 05:17:16;;;;;;;17.75;4.53;;;;;;;-144.73;85.50;54440.53;4991235;28;20034;-70
2023/03/29 05:19:42;;;;;;;17.05;5.25;;;;;;;-144.73;85.77;54469.28;4974530;28;20186;-70
2023/03/29 05:22:08;;;;;;;20.13;4.88;;;;;;;-144.73;86.27;54424.13;4973411;28;20098;-70
2023/03/29 05:24:34;;;;;;;18.63;5.68;;;;;;;-144.73;85.20;54461.06;4974391;28;20030;-70
2023/03/29 05:27:00;;;;;;;24.80;5.22;;;;;;;-144.73;85.21;54452.84;4974125;28;20045;-70
2023/03/29 05:29:25;;;;;;;22.13;5.90;;;;;;;-144.73;85.47;54452.84;4973973;28;20071;-70
2023/03/29 05:31:51;;;;;;;23.10;6.13;;;;;;;-144.73;85.42;54465.16;4973961;28;20155;-70
2023/03/29 05:34:17;;;;;;;17.52;4.95;;;;;;;-144.73;85.72;54440.53;4991252;28;20081;-71
2023/03/29 05:36:44;;;;;;;20.27;6.45;;;;;;;-144.73;85.06;54444.66;4986315;28;20076;-70
2023/03/29 05:39:10;;;;;;;18.35;6.07;;;;;;;-144.73;85.66;54485.69;4990105;28;20077;-71
2023/03/29 05:41:36;;;;;;;15.18;5.47;;;;;;;-144.73;85.80;54448.75;4989842;28;20066;-71
2023/03/29 05:44:01;;;;;;;21.70;7.13;;;;;;;-144.73;85.87;54436.44;4989924;28;20022;-70
2023/03/29 05:46:27;;;;;;;29.27;7.30;;;;;;;-144.73;85.26;54461.06;4991126;28;20100;-70
2023/03/29 05:48:52;;;;;;;20.15;7.35;;;;;;;-144.73;85.97;54481.59;4989969;28;20121;-70
2023/03/29 05:51:18;;;;;;;28.38;8.65;;;;;;;-144.73;86.06;54428.22;4989709;28;20045;-70
2023/03/29 05:53:44;;;;;;;21.88;8.00;;;;;;;-144.73;86.57;54452.84;4991381;28;20028;-70
2023/03/29 05:56:10;;;;;;;22.15;6.90;;;;;;;-144.73;86.55;54440.53;4989260;28;20031;-71
2023/03/29 05:58:37;;;;;;;33.53;8.23;;;;;;;-144.73;86.39;54432.31;4990288;28;20508;-71
2023/03/29 06:01:04;;;;;;;22.92;7.78;;;;;;;-144.73;86.23;54444.66;4989351;28;20045;-71
2023/03/29 06:03:29;;;;;;;19.00;8.07;;;;;;;-144.73;86.46;54440.53;4991279;28;20018;-71
2023/03/29 06:06:02;;;;;;;15.68;8.02;;;;;;;-144.73;86.01;54469.28;4989253;28;20536;-71
2023/03/29 06:08:28;;;;;;;15.68;7.50;;;;;;;-144.73;86.68;54481.59;4989785;28;20113;-71
2023/03/29 06:11:03;;;;;;;20.60;7.57;;;;;;;-144.73;86.38;54432.31;4990571;28;20042;-71
2023/03/29 06:13:29;;;;;;;22.40;8.00;;;;;;;-144.73;86.26;54452.84;4989748;28;20142;-70
2023/03/29 06:15:54;;;;;;;25.77;8.27;;;;;;;-144.73;86.21;54440.53;4973381;28;20067;-69
2023/03/29 06:18:22;;;;;;;20.33;8.13;;;;;;;-144.73;86.68;54440.53;4973735;28;20029;-69
2023/03/29 06:20:52;;;;;;;20.67;8.35;;;;;;;-144.73;86.61;54424.13;4989322;28;20125;-70
2023/03/29 06:23:18;;;;;;;24.80;9.77;;;;;;;-144.73;85.98;54436.44;4989659;28;20026;-69
2023/03/29 06:25:44;;;;;;;26.23;8.95;;;;;;;-144.73;86.23;54436.44;4973925;28;20045;-70
2023/03/29 06:28:11;;;;;;;15.80;8.27;;;;;;;-144.73;86.21;54442.59;4977089;28;20038;-70
2023/03/29 06:30:37;;;;;;;31.58;9.32;;;;;;;-144.73;86.92;54469.28;4994280;28;20038;-69
2023/03/29 06:33:05;;;;;;;22.10;8.77;;;;;;;-144.73;86.46;54440.53;4994063;28;20042;-70
2023/03/29 06:35:30;;;;;;;19.92;9.05;;;;;;;-144.73;85.96;54469.28;4979803;28;20039;-69
2023/03/29 06:37:55;;;;;;;28.60;8.18;;;;;;;-144.73;85.68;54506.22;5009840;28;20030;-69
2023/03/29 06:40:21;;;;;;;18.60;8.80;;;;;;;-144.73;85.56;54477.47;5001093;28;20378;-69
2023/03/29 06:42:47;;;;;;;21.83;7.75;;;;;;;-144.73;86.30;54444.66;4984818;28;20022;-70
2023/03/29 06:45:13;;;;;;;29.35;9.07;;;;;;;-144.73;86.28;54442.59;4997263;28;20081;-70
2023/03/29 06:47:39;;;;;;;21.73;8.45;;;;;;;-144.73;86.26;54469.28;4994934;28;20050;-70
2023/03/29 06:50:06;;;;;;;30.92;9.02;;;;;;;-144.73;86.74;54430.28;5000848;28;20026;-69
2023/03/29 06:52:32;;;;;;;23.40;8.20;;;;;;;-144.73;86.28;54428.22;4985646;28;20034;-69
2023/03/29 06:55:00;;;;;;;25.13;8.93;;;;;;;-144.73;86.57;54424.13;4968800;28;20094;-69
2023/03/29 06:57:26;;;;;;;27.27;9.18;;;;;;;-144.73;86.17;54465.16;4991896;28;20027;-69
2023/03/29 06:59:52;;;;;;;27.13;8.43;;;;;;;-144.73;86.32;54469.28;4979137;28;20037;-70
2023/03/29 07:02:17;;;;;;;23.83;8.95;;;;;;;-144.73;85.97;54424.13;4982472;28;20034;-69
2023/03/29 07:04:43;;;;;;;24.85;9.27;;;;;;;-144.73;85.89;54440.53;4979453;28;20019;-68
2023/03/29 07:07:18;;;;;;;24.05;8.88;;;;;;;-144.73;85.83;54469.28;4979643;28;20044;-69
2023/03/29 07:09:45;;;;;;;21.92;8.55;;;;;;;-144.73;86.44;54489.81;4980329;28;20049;-71
2023/03/29 07:12:11;;;;;;;21.80;8.77;;;;;;;-144.73;86.85;54461.06;4984874;28;20034;-69
2023/03/29 07:14:36;;;;;;;18.45;7.72;;;;;;;-144.73;86.65;54424.13;4981542;28;20025;-70
2023/03/29 07:17:03;;;;;;;19.40;7.97;;;;;;;-144.73;86.80;54456.97;4986804;28;20042;-69
2023/03/29 07:19:29;;;;;;;16.70;7.32;;;;;;;-144.73;85.78;54456.97;4977802;28;20053;-69
2023/03/29 07:21:55;;;;;;;17.40;7.35;;;;;;;-144.73;85.60;54420.00;4978492;28;20038;-69
2023/03/29 07:24:21;;;;;;;18.73;8.00;;;;;;;-144.73;85.81;54444.66;4978435;28;20077;-69
2023/03/29 07:26:51;;;;;;;14.35;7.88;;;;;;;-144.73;85.52;54481.59;4978620;28;20035;-71
2023/03/29 07:29:16;;;;;;;27.65;8.10;;;;;;;-144.73;85.38;54465.16;4983057;28;20034;-70
2023/03/29 07:31:43;;;;;;;19.40;7.78;;;;;;;-144.73;85.48;54461.06;4977642;28;20069;-69
2023/03/29 07:34:09;;;;;;;23.23;8.13;;;;;;;-144.73;85.44;54432.31;4977739;28;20030;-69
2023/03/29 07:36:37;;;;;;;15.95;7.53;;;;;;;-144.73;85.31;54485.69;4976225;28;20050;-69
2023/03/29 07:39:03;;;;;;;16.25;7.88;;;;;;;-144.73;84.87;54399.50;4976670;28;20037;-69
2023/03/29 07:41:29;;;;;;;18.85;7.25;;;;;;;-144.73;84.75;54448.75;4976583;28;20181;-69
2023/03/29 07:43:54;;;;;;;19.00;7.43;;;;;;;-144.73;85.30;54493.91;4985060;28;20109;-69
2023/03/29 07:46:20;;;;;;;18.75;7.28;;;;;;;-144.73;84.90;54481.59;4975198;28;20040;-69
2023/03/29 07:48:45;;;;;;;15.45;7.80;;;;;;;-144.73;85.61;54456.97;4976311;28;20061;-69
2023/03/29 07:51:10;;;;;;;13.85;6.72;;;;;;;-144.73;85.42;54456.97;4974774;28;20038;-69
2023/03/29 07:53:36;;;;;;;15.75;7.28;;;;;;;-144.73;85.50;54456.97;4988409;28;20058;-71
2023/03/29 07:56:01;;;;;;;15.85;7.53;;;;;;;-144.73;84.88;54432.31;4977546;28;20788;-71
2023/03/29 07:58:28;;;;;;;16.65;6.40;;;;;;;-144.73;82.97;54465.16;4973368;28;20045;-72
2023/03/29 08:00:53;;;;;;;14.77;6.72;;;;;;;-144.73;83.47;54465.16;4975786;28;20050;-72
2023/03/29 08:03:19;;;;;;;14.07;7.20;;;;;;;-144.73;81.44;54456.97;4970375;28;20027;-71
2023/03/29 08:05:44;;;;;;;16.48;6.43;;;;;;;-144.73;82.24;54469.28;4969035;28;20558;-71
2023/03/29 08:08:09;;;;;;;16.00;7.10;;;;;;;-144.73;82.96;54465.16;4968891;28;20037;-71
2023/03/29 08:10:37;;;;;;;20.00;7.43;;;;;;;-144.73;84.13;54450.81;4970310;28;20046;-70
2023/03/29 08:13:08;;;;;;;13.88;6.43;;;;;;;-144.73;84.80;54432.31;4968964;28;20096;-71
2023/03/29 08:15:36;;;;;;;17.60;7.00;;;;;;;-144.73;84.30;54438.50;4979221;28;20069;-71
2023/03/29 08:18:02;;;;;;;14.20;6.50;;;;;;;-144.73;84.53;54473.38;4969324;28;21042;-70
2023/03/29 08:20:28;;;;;;;14.20;6.60;;;;;;;-144.73;83.85;54450.81;4967942;28;20084;-72
2023/03/29 08:22:53;;;;;;;12.85;6.32;;;;;;;-144.73;83.34;54473.38;4973891;28;20117;-71
2023/03/29 08:25:19;;;;;;;14.85;6.80;;;;;;;-144.73;83.14;54440.53;4968538;28;20037;-71
2023/03/29 08:27:44;;;;;;;12.90;6.05;;;;;;;-144.73;82.85;54456.97;4976714;28;20030;-70
2023/03/29 08:30:10;;;;;;;25.17;6.78;;;;;;;-144.73;81.47;54473.38;4974394;28;20018;-72
2023/03/29 08:32:36;;;;;;;13.65;6.10;;;;;;;-144.73;82.42;54481.59;4967180;28;20033;-71
2023/03/29 08:35:08;;;;;;;12.15;6.43;;;;;;;-144.73;81.79;54461.06;4983664;28;20113;-72
2023/03/29 08:37:34;;;;;;;;;;;;;;;-144.73;82.79;54409.75;4968362;28;20042;-71
2023/03/29 08:40:00;;;;;;;14.00;6.55;;;;;;;-144.73;82.18;54428.22;4965999;28;19914;-71
2023/03/29 08:42:45;;;;;;;17.50;7.30;;;;;;;-144.73;81.39;54469.28;4968805;28;20117;-71
2023/03/29 08:45:30;;;;;;;14.05;6.35;;;;;;;-144.73;80.67;54454.91;4966987;28;20156;-71
2023/03/29 08:48:04;;;;;;;15.25;6.05;;;;;;;-144.73;81.53;54481.59;4982100;28;20516;-71
2023/03/29 08:50:35;;;;;;;19.52;6.78;;;;;;;-144.73;81.81;54469.28;4982023;28;20093;-71
2023/03/29 08:53:10;;;;;;;19.38;6.43;;;;;;;-144.73;81.32;54477.47;4984511;28;20405;-71
2023/03/29 08:55:41;;;;;;;16.67;7.68;;;;;;;-144.73;80.76;54428.22;4967305;28;20101;-72
2023/03/29 08:58:19;;;;;;;17.50;6.88;;;;;;;-144.73;79.91;54456.97;4966339;28;20019;-72
2023/03/29 09:00:56;;;;;;;14.75;6.78;;;;;;;-144.73;80.83;54424.13;4965597;28;20046;-71
2023/03/29 09:03:25;;;;;;;13.85;6.40;;;;;;;-144.73;81.26;54465.16;4983658;28;20045;-71
2023/03/29 09:05:56;;;;;;;14.20;7.65;;;;;;;-144.73;80.70;54424.13;4965689;28;20117;-70
2023/03/29 09:08:23;;;;;;;;;;;;;;;-144.73;81.38;54454.91;4967557;28;20022;-70
2023/03/29 09:11:16;;;;;;;18.83;6.72;;;;;;;-144.73;80.83;54440.53;4965656;28;19935;-71
2023/03/29 09:13:57;;;;;;;16.13;6.68;;;;;;;-144.73;81.32;54448.75;4967830;28;20061;-71
2023/03/29 09:16:43;;;;;;;13.23;6.57;;;;;;;-144.73;81.06;54440.53;4967455;28;20041;-71
2023/03/29 09:19:46;;;;;;;14.32;6.65;;;;;;;-144.73;79.71;54420.00;4965912;28;20061;-71
2023/03/29 09:22:15;;;;;;;21.38;6.57;;;;;;;-144.73;79.85;54452.84;4974687;28;20062;-70
2023/03/29 09:24:58;;;;;;;14.73;5.97;;;;;;;-144.73;79.62;54465.16;4983335;28;20110;-70
2023/03/29 09:27:50;;;;;;;16.38;6.38;;;;;;;-144.73;78.36;54473.38;4962373;28;20035;-71
2023/03/29 09:30:33;;;;;;;15.55;6.80;;;;;;;-144.73;78.28;54436.44;4955339;28;20027;-70
2023/03/29 09:33:14;;;;;;;9.75;5.47;;;;;;;-144.73;77.68;54473.38;4982381;28;20052;-70
2023/03/29 09:35:52;;;;;;;14.93;6.20;;;;;;;-144.73;78.20;54456.97;4963804;28;20045;-70
2023/03/29 09:38:20;;;;;;;9.68;6.45;;;;;;;-144.73;78.71;54459.00;4968363;28;20030;-70
2023/03/29 09:40:50;;;;;;;14.07;5.80;;;;;;;-144.73;78.52;54461.06;4971031;28;20406;-72
2023/03/29 09:43:25;;;;;;;14.43;6.65;;;;;;;-144.73;77.66;54473.38;4968203;28;20096;-72
2023/03/29 09:45:54;;;;;;;17.10;7.00;;;;;;;-144.73;77.61;54440.53;4968533;28;20061;-71
2023/03/29 09:48:20;;;;;;;17.38;6.93;;;;;;;-144.73;77.46;54415.91;4957965;28;20106;-71
2023/03/29 09:50:50;;;;;;;11.35;6.18;;;;;;;-144.73;78.48;54438.50;4964401;28;20126;-71
2023/03/29 09:53:17;;;;;;;14.52;6.53;;;;;;;-144.73;77.21;54461.06;4991725;28;20033;-70
2023/03/29 09:55:45;;;;;;;10.70;6.20;;;;;;;-144.73;75.99;54481.59;4971754;28;20486;-70
2023/03/29 09:58:15;;;;;;;17.00;6.20;;;;;;;-144.73;75.59;54420.00;4967250;28;20030;-71
2023/03/29 10:00:40;;;;;;;11.07;6.30;;;;;;;-144.73;73.55;54465.16;4983539;28;20066;-71
2023/03/29 10:03:06;;;;;;;12.80;6.05;;;;;;;-144.73;74.20;54440.53;4970350;28;20073;-71
2023/03/29 10:05:36;;;;;;;18.58;6.45;;;;;;;-144.73;73.83;54424.13;4973220;28;20053;-71
2023/03/29 10:08:13;;;;;;;14.23;6.93;;;;;;;-144.73;74.22;54397.44;4971369;28;20056;-72
2023/03/29 10:10:39;;;;;;;14.30;5.78;;;;;;;-144.73;75.19;54452.84;4970039;28;20069;-71
2023/03/29 10:13:11;;;;;;;19.52;6.43;;;;;;;-144.73;75.54;54461.06;4970278;28;20062;-71
2023/03/29 10:15:36;;;;;;;18.23;7.28;;;;;;;-144.73;76.32;54452.84;4970910;28;20049;-70
2023/03/29 10:18:06;;;;;;;12.40;6.25;;;;;;;-144.73;75.09;54450.81;4971088;28;20038;-71
2023/03/29 10:20:34;;;;;;;16.98;7.22;;;;;;;-144.73;76.23;54465.16;4969116;28;20050;-71
2023/03/29 10:22:59;;;;;;;12.27;7.13;;;;;;;-144.73;76.06;54411.81;4970983;28;20038;-71
2023/03/29 10:25:31;;;;;;;16.10;6.93;;;;;;;-144.73;76.38;54440.53;4983539;28;20378;-71
2023/03/29 10:28:07;;;;;;;19.92;7.93;;;;;;;-144.73;77.54;54444.66;4970385;28;20018;-71
2023/03/29 10:30:36;;;;;;;13.18;6.70;;;;;;;-144.73;77.81;54448.75;4976908;28;20034;-70
2023/03/29 10:33:02;;;;;;;12.63;6.60;;;;;;;-144.73;77.47;54469.28;4971206;28;20057;-70
2023/03/29 10:35:37;;;;;;;13.02;7.20;;;;;;;-144.73;76.97;54407.69;4969631;28;20133;-71
2023/03/29 10:38:06;;;;;;;19.48;7.57;;;;;;;-144.73;76.60;54452.84;4969549;28;20648;-72
2023/03/29 10:40:34;;;;;;;18.10;6.93;;;;;;;-144.73;77.47;54444.66;4970272;28;20049;-71
2023/03/29 10:43:18;;;;;;;14.85;7.38;;;;;;;-144.73;78.14;54432.31;4982402;28;20079;-72
2023/03/29 10:45:49;;;;;;;13.20;7.45;;;;;;;-144.73;78.45;54420.00;4969921;28;20505;-71
2023/03/29 10:48:16;;;;;;;;;;;;;;;-144.73;79.00;54432.31;4970723;28;20026;-71
2023/03/29 10:50:46;;;;;;;11.75;6.00;;;;;;;-144.73;78.85;54448.75;4969901;28;19913;-70
2023/03/29 10:53:33;;;;;;;13.48;6.80;;;;;;;-144.73;76.70;54448.75;4970063;28;20113;-72
2023/03/29 10:56:17;;;;;;;12.52;7.25;;;;;;;-144.73;76.65;54465.16;4967474;28;20440;-70
2023/03/29 10:59:02;;;;;;;16.02;7.03;;;;;;;-144.73;77.02;54428.22;4985720;28;20040;-70
2023/03/29 11:01:45;;;;;;;13.25;7.13;;;;;;;-144.73;78.15;54465.16;4990050;28;20045;-71
2023/03/29 11:04:25;;;;;;;12.85;7.05;;;;;;;-144.73;78.26;54436.44;4963678;28;20121;-71
2023/03/29 11:07:05;;;;;;;10.25;6.40;;;;;;;-144.73;77.93;54432.31;4972527;28;20038;-71
2023/03/29 11:09:48;;;;;;;15.18;6.63;;;;;;;-144.73;79.26;54411.81;4967211;28;20037;-71
2023/03/29 11:12:26;;;;;;;14.45;7.82;;;;;;;-144.73;78.92;54469.28;4971825;28;20031;-70
2023/03/29 11:15:16;;;;;;;17.55;6.85;;;;;;;-144.73;78.30;54413.84;4969541;28;20107;-71
2023/03/29 11:18:16;;;;;;;14.57;6.47;;;;;;;-144.73;78.51;54432.31;4986645;28;20062;-72
2023/03/29 11:20:55;;;;;;;13.88;7.38;;;;;;;-144.73;78.18;54424.13;4965977;28;20038;-72